createdAt,value
2023-04-27T00:02:25.785Z,78.47
2023-04-27T00:04:54.028Z,78.28
2023-04-27T00:07:22.219Z,78.88
2023-04-27T00:09:49.927Z,79.26
2023-04-27T00:12:17.801Z,79.14
2023-04-27T00:14:46.134Z,78.85
2023-04-27T00:17:13.682Z,78.66
2023-04-27T00:19:42.202Z,78.84
2023-04-27T00:22:09.815Z,78.94
2023-04-27T00:24:37.630Z,79.26
2023-04-27T00:27:06.061Z,79.34
2023-04-27T00:29:34.432Z,79.46
2023-04-27T00:32:02.280Z,79.42
2023-04-27T00:34:30.155Z,79.75
2023-04-27T00:36:57.768Z,79.63
2023-04-27T00:39:25.548Z,80.01
2023-04-27T00:41:53.627Z,79.88
2023-04-27T00:44:28.004Z,80.00
2023-04-27T00:46:56.666Z,80.28
2023-04-27T00:49:24.294Z,80.16
2023-04-27T00:51:51.977Z,80.15
2023-04-27T00:54:21.208Z,80.62
2023-04-27T00:56:52.764Z,80.13
2023-04-27T00:59:20.857Z,79.83
2023-04-27T01:01:48.804Z,79.64
2023-04-27T01:04:18.153Z,79.64
2023-04-27T01:06:46.425Z,79.49
2023-04-27T01:09:14.493Z,78.85
2023-04-27T01:11:42.924Z,78.81
2023-04-27T01:14:10.892Z,78.97
2023-04-27T01:16:39.192Z,78.82
2023-04-27T01:19:08.351Z,78.86
2023-04-27T01:21:36.073Z,78.92
2023-04-27T01:24:07.550Z,79.13
2023-04-27T01:26:38.762Z,78.94
2023-04-27T01:29:06.676Z,78.97
2023-04-27T01:31:34.672Z,79.21
2023-04-27T01:34:02.431Z,79.25
2023-04-27T01:36:32.521Z,79.12
2023-04-27T01:39:00.265Z,78.97
2023-04-27T01:41:28.432Z,78.91
2023-04-27T01:43:56.580Z,79.05
2023-04-27T01:46:24.436Z,78.84
2023-04-27T01:48:52.220Z,79.30
2023-04-27T01:51:20.216Z,79.02
2023-04-27T01:53:47.958Z,79.13
2023-04-27T01:56:17.429Z,79.37
2023-04-27T01:58:46.432Z,80.11
2023-04-27T02:01:14.804Z,80.72
2023-04-27T02:03:42.727Z,80.80
2023-04-27T02:06:10.563Z,79.94
2023-04-27T02:08:38.287Z,79.85
2023-04-27T02:11:09.479Z,79.76
2023-04-27T02:13:37.360Z,79.96
2023-04-27T02:16:05.618Z,80.10
2023-04-27T02:18:34.028Z,80.27
2023-04-27T02:21:02.057Z,80.09
2023-04-27T02:23:29.767Z,80.09
2023-04-27T02:25:57.488Z,79.53
2023-04-27T02:28:25.401Z,79.22
2023-04-27T02:30:54.877Z,79.33
2023-04-27T02:33:22.767Z,79.03
2023-04-27T02:35:51.263Z,79.96
2023-04-27T02:38:19.002Z,79.76
2023-04-27T02:40:47.077Z,78.97
2023-04-27T02:43:14.699Z,78.39
2023-04-27T02:45:42.452Z,77.74
2023-04-27T02:48:10.767Z,78.11
2023-04-27T02:50:43.641Z,79.32
2023-04-27T02:53:11.748Z,78.64
2023-04-27T02:55:39.535Z,79.30
2023-04-27T02:58:07.701Z,79.37
2023-04-27T03:00:35.332Z,78.81
2023-04-27T03:03:03.261Z,78.14
2023-04-27T03:05:32.057Z,78.51
2023-04-27T03:08:00.338Z,77.74
2023-04-27T03:10:28.387Z,77.13
2023-04-27T03:12:56.109Z,76.73
2023-04-27T03:15:24.073Z,76.52
2023-04-27T03:17:51.987Z,76.55
2023-04-27T03:20:20.442Z,76.79
2023-04-27T03:22:48.165Z,77.36
2023-04-27T03:25:15.981Z,78.33
2023-04-27T03:27:43.787Z,78.15
2023-04-27T03:30:13.725Z,78.55
2023-04-27T03:32:42.268Z,80.18
2023-04-27T03:35:10.466Z,81.12
2023-04-27T03:37:39.371Z,81.57
2023-04-27T03:40:10.055Z,81.36
2023-04-27T03:42:38.549Z,81.28
2023-04-27T03:45:07.457Z,81.36
2023-04-27T03:47:36.863Z,80.63
2023-04-27T03:50:04.867Z,79.06
2023-04-27T03:52:33.475Z,78.90
2023-04-27T03:55:01.481Z,78.76
2023-04-27T03:57:29.381Z,78.06
2023-04-27T03:59:57.989Z,77.88
2023-04-27T04:02:26.491Z,77.59
2023-04-27T04:04:54.791Z,77.20
2023-04-27T04:07:23.164Z,77.03
2023-04-27T04:09:51.374Z,76.70
2023-04-27T04:12:19.357Z,76.36
2023-04-27T04:14:49.191Z,76.35
2023-04-27T04:17:17.352Z,77.06
2023-04-27T04:19:45.191Z,77.78
2023-04-27T04:22:13.337Z,78.67
2023-04-27T04:24:41.300Z,77.89
2023-04-27T04:27:09.286Z,78.23
2023-04-27T04:29:37.066Z,78.15
2023-04-27T04:32:05.580Z,78.05
2023-04-27T04:34:33.687Z,78.84
2023-04-27T04:37:02.308Z,77.63
2023-04-27T04:39:31.997Z,76.99
2023-04-27T04:41:59.906Z,77.80
2023-04-27T04:44:30.457Z,77.34
2023-04-27T04:46:58.297Z,76.88
2023-04-27T04:49:27.248Z,76.47
2023-04-27T04:51:55.243Z,76.31
2023-04-27T04:54:23.318Z,76.04
2023-04-27T04:56:51.206Z,75.69
2023-04-27T04:59:19.198Z,75.71
2023-04-27T05:01:46.799Z,76.09
2023-04-27T05:04:14.870Z,75.47
2023-04-27T05:06:42.867Z,75.94
2023-04-27T05:09:11.018Z,74.92
2023-04-27T05:11:38.831Z,74.91
2023-04-27T05:14:06.571Z,75.53
2023-04-27T05:16:34.707Z,75.13
2023-04-27T05:19:02.435Z,75.33
2023-04-27T05:21:30.067Z,75.28
2023-04-27T05:23:57.548Z,75.18
2023-04-27T05:26:25.585Z,75.63
2023-04-27T05:28:53.356Z,75.12
2023-04-27T05:31:21.258Z,75.05
2023-04-27T05:33:49.275Z,75.12
2023-04-27T05:36:17.022Z,74.86
2023-04-27T05:38:44.980Z,75.45
2023-04-27T05:41:12.716Z,74.90
2023-04-27T05:43:41.040Z,74.70
2023-04-27T05:46:09.063Z,74.34
2023-04-27T05:48:36.863Z,74.78
2023-04-27T05:51:04.793Z,73.81
2023-04-27T05:53:33.693Z,72.16
2023-04-27T05:56:01.640Z,71.57
2023-04-27T05:58:29.665Z,71.56
2023-04-27T06:00:57.759Z,71.89
2023-04-27T06:03:26.377Z,72.21
2023-04-27T06:05:59.318Z,72.56
2023-04-27T06:08:27.889Z,71.82
2023-04-27T06:10:55.775Z,72.78
2023-04-27T06:13:24.131Z,71.85
2023-04-27T06:15:52.002Z,70.61
2023-04-27T06:18:19.824Z,70.38
2023-04-27T06:20:50.115Z,70.37
2023-04-27T06:23:18.620Z,69.98
2023-04-27T06:25:46.845Z,70.80
2023-04-27T06:28:14.559Z,69.67
2023-04-27T06:30:42.235Z,69.20
2023-04-27T06:33:10.734Z,70.05
2023-04-27T06:35:39.224Z,69.54
2023-04-27T06:38:08.043Z,68.57
2023-04-27T06:40:36.524Z,68.67
2023-04-27T06:43:05.404Z,68.19
2023-04-27T06:45:33.121Z,67.78
2023-04-27T06:48:01.016Z,69.39
2023-04-27T06:50:29.670Z,68.95
2023-04-27T06:52:58.164Z,67.05
2023-04-27T06:55:26.730Z,66.24
2023-04-27T06:57:54.868Z,67.53
2023-04-27T07:00:22.546Z,66.76
2023-04-27T07:02:50.473Z,65.81
2023-04-27T07:05:18.549Z,67.72
2023-04-27T07:07:46.407Z,67.66
2023-04-27T07:10:14.219Z,66.46
2023-04-27T07:12:42.628Z,65.46
2023-04-27T07:15:10.776Z,65.09
2023-04-27T07:17:38.902Z,65.35
2023-04-27T07:20:07.712Z,67.00
2023-04-27T07:22:35.859Z,65.97
2023-04-27T07:25:04.721Z,65.98
2023-04-27T07:27:33.224Z,64.80
2023-04-27T07:30:01.101Z,63.74
2023-04-27T07:32:29.339Z,64.94
2023-04-27T07:34:57.008Z,64.18
2023-04-27T07:37:24.929Z,65.74
2023-04-27T07:39:53.371Z,64.94
2023-04-27T07:42:22.703Z,64.07
2023-04-27T07:44:50.620Z,63.62
2023-04-27T07:47:18.925Z,63.82
2023-04-27T07:49:47.210Z,63.12
2023-04-27T07:52:16.152Z,62.88
2023-04-27T07:54:44.123Z,62.65
2023-04-27T07:57:12.439Z,63.09
2023-04-27T07:59:40.116Z,62.37
2023-04-27T08:02:18.596Z,61.52
2023-04-27T08:04:48.756Z,61.56
2023-04-27T08:07:17.818Z,61.58
2023-04-27T08:09:46.016Z,63.01
2023-04-27T08:12:14.081Z,62.01
2023-04-27T08:14:42.146Z,60.86
2023-04-27T08:17:12.385Z,61.79
2023-04-27T08:19:41.371Z,62.78
2023-04-27T08:22:09.044Z,61.32
2023-04-27T08:24:38.277Z,62.63
2023-04-27T08:27:06.493Z,60.54
2023-04-27T08:29:34.595Z,61.28
2023-04-27T08:32:03.271Z,61.17
2023-04-27T08:34:31.267Z,62.37
2023-04-27T08:36:59.249Z,60.99
2023-04-27T08:39:27.264Z,61.36
2023-04-27T08:41:55.111Z,62.20
2023-04-27T08:44:23.029Z,60.58
2023-04-27T08:46:51.551Z,60.55
2023-04-27T08:49:21.092Z,59.93
2023-04-27T08:51:49.217Z,58.71
2023-04-27T08:54:17.337Z,57.59
2023-04-27T08:56:45.054Z,57.72
2023-04-27T08:59:17.323Z,59.62
2023-04-27T09:01:49.331Z,55.41
2023-04-27T09:04:18.866Z,56.74
2023-04-27T09:06:46.690Z,55.00
2023-04-27T09:09:24.739Z,51.81
2023-04-27T09:11:52.386Z,52.87
2023-04-27T09:14:21.448Z,52.35
2023-04-27T09:16:57.995Z,51.20
2023-04-27T09:19:30.914Z,50.92
2023-04-27T09:22:09.769Z,51.97
2023-04-27T09:24:38.106Z,52.08
2023-04-27T09:27:07.588Z,51.01
2023-04-27T09:29:37.503Z,50.85
2023-04-27T09:32:17.299Z,51.50
2023-04-27T09:34:45.715Z,51.15
2023-04-27T09:37:14.806Z,49.87
2023-04-27T09:39:42.432Z,49.13
2023-04-27T09:42:10.153Z,48.24
2023-04-27T09:44:37.774Z,48.61
2023-04-27T09:47:05.836Z,49.39
2023-04-27T09:49:33.800Z,47.30
2023-04-27T09:52:01.880Z,46.40
2023-04-27T09:54:30.658Z,46.45
2023-04-27T09:57:12.420Z,47.60
2023-04-27T10:00:10.033Z,46.32
2023-04-27T10:03:07.958Z,46.80
2023-04-27T10:06:09.176Z,45.33
2023-04-27T10:08:37.369Z,45.62
2023-04-27T10:11:19.255Z,46.72
2023-04-27T10:13:56.922Z,46.81
2023-04-27T10:16:24.578Z,44.69
2023-04-27T10:18:56.796Z,44.20
2023-04-27T10:21:24.672Z,44.68
2023-04-27T10:23:52.718Z,44.69
2023-04-27T10:26:38.036Z,46.38
2023-04-27T10:29:09.749Z,43.55
2023-04-27T10:31:44.300Z,41.59
2023-04-27T10:34:18.033Z,39.41
2023-04-27T10:36:47.907Z,41.21
2023-04-27T10:39:20.161Z,40.14
2023-04-27T10:41:56.060Z,38.22
2023-04-27T10:44:29.075Z,39.42
2023-04-27T10:47:03.117Z,39.41
2023-04-27T10:49:32.061Z,41.27
2023-04-27T10:52:00.288Z,40.81
2023-04-27T10:54:29.586Z,41.16
2023-04-27T10:57:13.423Z,40.18
2023-04-27T10:59:54.010Z,38.96
2023-04-27T11:02:30.579Z,39.77
2023-04-27T11:04:59.184Z,41.02
2023-04-27T11:07:28.289Z,39.93
2023-04-27T11:09:56.299Z,40.11
2023-04-27T11:12:24.822Z,40.50
2023-04-27T11:15:01.151Z,39.45
2023-04-27T11:17:30.169Z,39.54
2023-04-27T11:19:58.004Z,39.28
2023-04-27T11:22:25.816Z,39.00
2023-04-27T11:24:56.114Z,38.89
2023-04-27T11:27:25.625Z,40.05
2023-04-27T11:29:53.500Z,38.92
2023-04-27T11:32:24.058Z,38.58
2023-04-27T11:34:55.109Z,38.75
2023-04-27T11:37:28.551Z,37.32
2023-04-27T11:40:01.318Z,37.91
2023-04-27T11:42:29.149Z,37.25
2023-04-27T11:45:03.852Z,36.04
2023-04-27T11:47:32.995Z,34.49
2023-04-27T11:50:02.419Z,33.97
2023-04-27T11:52:30.781Z,34.75
2023-04-27T11:54:59.450Z,34.02
2023-04-27T11:57:30.789Z,33.40
2023-04-27T12:00:17.296Z,33.06
2023-04-27T12:02:45.547Z,30.39
2023-04-27T12:05:14.117Z,30.25
2023-04-27T12:07:42.743Z,30.29
2023-04-27T12:10:10.810Z,30.45
2023-04-27T12:12:38.904Z,30.34
2023-04-27T12:15:10.206Z,29.45
2023-04-27T12:17:39.898Z,28.52
2023-04-27T12:20:11.969Z,29.19
2023-04-27T12:22:41.521Z,30.37
2023-04-27T12:25:09.977Z,30.21
2023-04-27T12:27:38.302Z,29.61
2023-04-27T12:30:07.105Z,29.55
2023-04-27T12:32:35.289Z,29.38
2023-04-27T12:35:03.033Z,29.00
2023-04-27T12:37:30.865Z,28.27
2023-04-27T12:39:58.790Z,29.25
2023-04-27T12:42:26.666Z,29.44
2023-04-27T12:44:54.143Z,30.58
2023-04-27T12:47:46.014Z,30.94
2023-04-27T12:50:10.743Z,30.15
2023-04-27T12:52:38.338Z,31.08
2023-04-27T12:55:06.668Z,31.73
2023-04-27T12:57:36.643Z,32.95
2023-04-27T13:00:08.297Z,33.60
2023-04-27T13:02:37.133Z,32.93
2023-04-27T13:05:07.937Z,33.19
2023-04-27T13:07:36.583Z,33.53
2023-04-27T13:10:04.930Z,35.64
2023-04-27T13:12:34.328Z,35.61
2023-04-27T13:15:02.633Z,35.30
2023-04-27T13:17:31.251Z,34.75
2023-04-27T13:19:59.524Z,35.00
2023-04-27T13:22:27.742Z,35.65
2023-04-27T13:24:55.888Z,36.58
2023-04-27T13:27:25.495Z,36.81
2023-04-27T13:29:53.081Z,36.07
2023-04-27T13:32:20.861Z,36.41
2023-04-27T13:34:48.304Z,37.37
2023-04-27T13:37:16.631Z,38.87
2023-04-27T13:39:44.138Z,38.27
2023-04-27T13:42:12.709Z,37.18
2023-04-27T13:44:40.360Z,36.78
2023-04-27T13:47:08.298Z,36.68
2023-04-27T13:49:36.289Z,37.24
2023-04-27T13:52:03.853Z,37.19
2023-04-27T13:54:31.874Z,37.15
2023-04-27T13:57:00.065Z,37.75
2023-04-27T13:59:27.767Z,37.70
2023-04-27T14:01:55.490Z,38.42
2023-04-27T14:04:23.307Z,38.79
2023-04-27T14:06:51.298Z,38.60
2023-04-27T14:09:19.494Z,37.89
2023-04-27T14:11:56.463Z,36.59
2023-04-27T14:14:24.845Z,37.41
2023-04-27T14:16:53.640Z,37.75
2023-04-27T14:19:22.166Z,38.70
2023-04-27T14:21:50.273Z,38.26
2023-04-27T14:24:18.041Z,38.23
2023-04-27T14:26:47.832Z,39.48
2023-04-27T14:29:15.756Z,39.49
2023-04-27T14:31:43.904Z,39.31
2023-04-27T14:34:12.115Z,39.83
2023-04-27T14:36:41.123Z,39.91
2023-04-27T14:39:09.710Z,39.58
2023-04-27T14:41:39.545Z,39.54
2023-04-27T14:44:08.589Z,39.81
2023-04-27T14:46:37.153Z,39.96
2023-04-27T14:49:04.984Z,39.69
2023-04-27T14:51:33.374Z,40.61
2023-04-27T14:54:01.342Z,40.34
2023-04-27T14:56:29.173Z,40.47
2023-04-27T14:58:56.774Z,42.00
2023-04-27T15:01:24.632Z,42.14
2023-04-27T15:03:53.340Z,42.71
2023-04-27T15:06:22.458Z,43.13
2023-04-27T15:08:50.055Z,43.73
2023-04-27T15:11:17.859Z,43.24
2023-04-27T15:13:46.512Z,43.88
2023-04-27T15:16:15.717Z,43.66
2023-04-27T15:18:43.317Z,45.43
2023-04-27T15:21:11.295Z,45.98
2023-04-27T15:23:38.908Z,46.51
2023-04-27T15:26:06.598Z,47.38
2023-04-27T15:28:34.948Z,46.07
2023-04-27T15:31:02.467Z,47.49
2023-04-27T15:33:33.369Z,47.04
2023-04-27T15:36:01.114Z,46.94
2023-04-27T15:38:28.881Z,48.36
2023-04-27T15:40:56.774Z,48.65
2023-04-27T15:43:25.523Z,52.09
2023-04-27T15:45:54.160Z,53.36
2023-04-27T15:48:21.850Z,54.73
2023-04-27T15:50:49.686Z,56.60
2023-04-27T15:53:17.716Z,56.60
2023-04-27T15:55:45.176Z,57.39
2023-04-27T15:58:12.643Z,57.02
2023-04-27T16:00:40.197Z,59.06
2023-04-27T16:03:11.363Z,57.63
2023-04-27T16:05:38.986Z,59.89
2023-04-27T16:08:06.522Z,59.88
2023-04-27T16:10:34.470Z,60.29
2023-04-27T16:13:02.125Z,59.82
2023-04-27T16:15:29.722Z,59.05
2023-04-27T16:17:57.196Z,59.64
2023-04-27T16:20:28.056Z,60.24
2023-04-27T16:22:56.789Z,59.93
2023-04-27T16:25:24.801Z,61.46
2023-04-27T16:27:52.600Z,63.98
2023-04-27T16:30:20.361Z,64.25
2023-04-27T16:32:48.442Z,65.46
2023-04-27T16:35:16.234Z,67.28
2023-04-27T16:37:44.010Z,67.57
2023-04-27T16:40:12.202Z,68.24
2023-04-27T16:42:42.306Z,70.22
2023-04-27T16:45:11.029Z,69.00
2023-04-27T16:47:39.253Z,69.95
2023-04-27T16:50:07.326Z,69.64
2023-04-27T16:52:35.613Z,70.18
2023-04-27T16:55:03.523Z,69.95
2023-04-27T16:57:31.885Z,70.04
2023-04-27T17:00:01.298Z,70.20
2023-04-27T17:02:29.787Z,70.37
2023-04-27T17:04:59.810Z,70.85
2023-04-27T17:07:33.267Z,72.29
2023-04-27T17:10:03.777Z,72.60
2023-04-27T17:12:32.242Z,72.02
2023-04-27T17:14:59.972Z,73.57
2023-04-27T17:17:32.745Z,72.90
2023-04-27T17:20:01.189Z,74.97
2023-04-27T17:22:30.326Z,74.80
2023-04-27T17:24:58.297Z,73.91
2023-04-27T17:27:26.069Z,74.44
2023-04-27T17:29:54.452Z,77.07
2023-04-27T17:32:22.916Z,78.10
2023-04-27T17:34:50.730Z,79.04
2023-04-27T17:37:18.536Z,79.93
2023-04-27T17:39:48.208Z,81.81
2023-04-27T17:42:16.325Z,83.59
2023-04-27T17:44:43.983Z,85.15
2023-04-27T17:47:12.688Z,83.42
2023-04-27T17:49:41.825Z,83.63
2023-04-27T17:52:10.046Z,85.15
2023-04-27T17:54:38.265Z,85.79
2023-04-27T17:57:06.318Z,86.18
2023-04-27T17:59:34.788Z,87.30
2023-04-27T18:02:03.189Z,87.75
2023-04-27T18:04:31.369Z,86.96
2023-04-27T18:06:59.883Z,85.65
2023-04-27T18:09:30.098Z,85.52
2023-04-27T18:11:59.989Z,83.42
2023-04-27T18:14:27.943Z,83.12
2023-04-27T18:16:55.868Z,82.03
2023-04-27T18:19:23.769Z,81.30
2023-04-27T18:21:51.840Z,80.88
2023-04-27T18:24:20.000Z,80.80
2023-04-27T18:26:47.863Z,80.15
2023-04-27T18:29:16.096Z,81.95
2023-04-27T18:31:43.945Z,81.43
2023-04-27T18:34:12.660Z,81.22
2023-04-27T18:36:40.420Z,85.54
2023-04-27T18:39:08.140Z,89.84
2023-04-27T18:41:37.053Z,95.00
2023-04-27T18:44:06.018Z,98.41
2023-04-27T18:46:35.134Z,100.00
2023-04-27T18:49:03.336Z,100.00
2023-04-27T18:51:32.451Z,99.31
2023-04-27T18:54:01.000Z,100.00
2023-04-27T18:56:29.268Z,100.00
2023-04-27T18:58:58.402Z,100.00
2023-04-27T19:01:26.880Z,100.00
2023-04-27T19:03:55.357Z,100.00
2023-04-27T19:06:23.257Z,100.00
2023-04-27T19:08:51.896Z,100.00
2023-04-27T19:11:22.537Z,100.00
2023-04-27T19:13:50.458Z,100.00
2023-04-27T19:16:18.818Z,100.00
2023-04-27T19:18:46.654Z,100.00
2023-04-27T19:21:15.035Z,100.00
2023-04-27T19:23:44.899Z,100.00
2023-04-27T19:26:14.340Z,100.00
2023-04-27T19:28:42.195Z,100.00
2023-04-27T19:31:10.611Z,100.00
2023-04-27T19:33:38.392Z,100.00
2023-04-27T19:36:06.608Z,100.00
2023-04-27T19:38:34.809Z,100.00
2023-04-27T19:41:04.615Z,100.00
2023-04-27T19:43:34.051Z,100.00
2023-04-27T19:46:02.372Z,100.00
2023-04-27T19:48:31.090Z,99.30
2023-04-27T19:50:58.814Z,100.00
2023-04-27T19:53:27.840Z,97.89
2023-04-27T19:55:55.651Z,98.53
2023-04-27T19:58:23.806Z,97.37
2023-04-27T20:00:52.690Z,98.07
2023-04-27T20:03:22.279Z,97.51
2023-04-27T20:05:51.856Z,99.72
2023-04-27T20:08:20.172Z,100.00
2023-04-27T20:10:48.481Z,100.00
2023-04-27T20:13:17.365Z,100.00
2023-04-27T20:15:45.452Z,100.00
2023-04-27T20:18:13.414Z,100.00
2023-04-27T20:20:42.254Z,100.00
2023-04-27T20:23:10.203Z,100.00
2023-04-27T20:25:38.574Z,100.00
2023-04-27T20:28:06.411Z,100.00
2023-04-27T20:30:34.782Z,100.00
2023-04-27T20:33:03.926Z,100.00
2023-04-27T20:35:33.055Z,100.00
2023-04-27T20:38:02.165Z,100.00
2023-04-27T20:40:30.439Z,100.00
2023-04-27T20:42:58.214Z,100.00
2023-04-27T20:45:26.070Z,100.00
2023-04-27T20:47:54.177Z,100.00
2023-04-27T20:50:21.950Z,100.00
2023-04-27T20:52:50.163Z,100.00
2023-04-27T20:55:18.343Z,100.00
2023-04-27T20:57:46.661Z,100.00
2023-04-27T21:00:16.138Z,100.00
2023-04-27T21:02:44.573Z,100.00
2023-04-27T21:05:12.593Z,100.00
2023-04-27T21:07:41.386Z,100.00
2023-04-27T21:10:10.037Z,100.00
2023-04-27T21:12:38.439Z,100.00
2023-04-27T21:15:07.025Z,100.00
2023-04-27T21:17:35.445Z,100.00
2023-04-27T21:20:03.943Z,100.00
2023-04-27T21:22:32.663Z,100.00
2023-04-27T21:25:00.394Z,100.00
2023-04-27T21:27:28.937Z,100.00
2023-04-27T21:29:57.243Z,100.00
2023-04-27T21:32:24.889Z,100.00
2023-04-27T21:34:52.882Z,100.00
2023-04-27T21:37:20.575Z,100.00
2023-04-27T21:39:48.143Z,100.00
2023-04-27T21:42:16.775Z,100.00
2023-04-27T21:44:44.744Z,100.00
2023-04-27T21:47:13.070Z,100.00
2023-04-27T21:49:40.749Z,100.00
2023-04-27T21:52:08.468Z,100.00
2023-04-27T21:54:36.741Z,100.00
2023-04-27T21:57:04.489Z,100.00
2023-04-27T21:59:32.325Z,100.00
2023-04-27T22:02:00.405Z,100.00
2023-04-27T22:04:29.129Z,100.00
2023-04-27T22:06:57.271Z,100.00
2023-04-27T22:09:27.185Z,100.00
2023-04-27T22:11:55.461Z,100.00
2023-04-27T22:14:23.535Z,100.00
2023-04-27T22:16:52.231Z,100.00
2023-04-27T22:19:20.386Z,100.00
2023-04-27T22:21:48.144Z,100.00
2023-04-27T22:24:16.284Z,100.00
2023-04-27T22:26:44.117Z,100.00
2023-04-27T22:29:12.353Z,100.00
2023-04-27T22:31:40.576Z,100.00
2023-04-27T22:34:08.460Z,100.00
2023-04-27T22:36:37.996Z,100.00
2023-04-27T22:39:05.932Z,100.00
2023-04-27T22:41:33.938Z,99.59
2023-04-27T22:44:01.637Z,98.70
2023-04-27T22:46:30.499Z,100.00
2023-04-27T22:49:01.668Z,100.00
2023-04-27T22:51:29.504Z,100.00
2023-04-27T22:53:57.227Z,100.00
2023-04-27T22:56:25.105Z,100.00
2023-04-27T22:58:52.826Z,100.00
2023-04-27T23:01:20.778Z,100.00
2023-04-27T23:03:48.691Z,100.00
2023-04-27T23:06:16.621Z,100.00
2023-04-27T23:08:47.326Z,100.00
2023-04-27T23:11:15.671Z,100.00
2023-04-27T23:13:44.779Z,100.00
2023-04-27T23:16:15.012Z,100.00
2023-04-27T23:18:42.892Z,100.00
2023-04-27T23:21:11.879Z,100.00
2023-04-27T23:23:40.023Z,100.00
2023-04-27T23:26:15.081Z,100.00
2023-04-27T23:28:43.436Z,100.00
2023-04-27T23:31:11.622Z,100.00
2023-04-27T23:33:39.563Z,100.00
2023-04-27T23:36:07.440Z,100.00
2023-04-27T23:38:35.138Z,100.00
2023-04-27T23:41:02.803Z,99.25
2023-04-27T23:43:30.898Z,97.82
2023-04-27T23:45:58.670Z,97.82
2023-04-27T23:48:26.548Z,97.37
2023-04-27T23:51:01.775Z,96.46
2023-04-27T23:53:30.231Z,95.62
2023-04-27T23:55:57.884Z,95.59
2023-04-27T23:58:26.470Z,95.96
